Latest Weather Observations for Warburto Point

IDS60801

Issued at 8:05 pm CDT Saturday 1 November 2014 (issued every 30 minutes, with the page automatically refreshed every 10 minutes)

About weather observations | Map of weather stations | Latest weather observations for SA | Other Formats
Station Details ID: 022053 Name: WARBURTO POINT Lat: -34.00 Lon: 137.53 Height: 1.0 m
Data from the previous 72 hours. | See also: Recent months for locations in South Australia
Date/Time
CDT
Temp
°C
App
Temp
°C
Dew
Point
Rel
Hum
%
Delta-T
°C
Wind Press
QNH
hPa
Press
MSL
hPa
Rain
since 9 am
mm
Dir
 
Spd
km/h
Gust
km/h
Spd
kts
Gust
kts
01/08:00pm - - - - - SSW 30 37 16 20 - - -
01/07:30pm - - - - - SSW 32 41 17 22 - - -
01/07:00pm - - - - - SSW 32 41 17 22 - - -
01/06:30pm - - - - - SSW 35 46 19 25 - - -
01/06:00pm - - - - - SSW 33 43 18 23 - - -
01/05:30pm - - - - - SSW 37 48 20 26 - - -
01/05:00pm - - - - - SSW 35 46 19 25 - - -
01/04:30pm - - - - - SSW 35 46 19 25 - - -
01/04:00pm - - - - - SSW 39 50 21 27 - - -
01/03:30pm - - - - - SSW 39 54 21 29 - - -
01/03:00pm - - - - - SSW 37 48 20 26 - - -
01/02:30pm - - - - - SSW 39 54 21 29 - - -
01/02:00pm - - - - - SSW 37 52 20 28 - - -
01/01:30pm - - - - - SSW 39 50 21 27 - - -
01/01:00pm - - - - - SSW 39 52 21 28 - - -
01/12:30pm - - - - - SSW 39 56 21 30 - - -
01/12:00pm - - - - - SSW 35 46 19 25 - - -
01/11:30am - - - - - SSW 41 52 22 28 - - -
01/11:00am - - - - - SW 41 54 22 29 - - -
01/10:30am - - - - - SSW 43 54 23 29 - - -
01/10:00am - - - - - SSW 44 56 24 30 - - -
01/09:30am - - - - - SSW 43 54 23 29 - - -
01/09:00am - - - - - SSW 43 57 23 31 - - -
01/08:30am - - - - - SW 41 57 22 31 - - -
01/08:26am - - - - - SW 37 56 20 30 - - -
01/08:00am - - - - - SSW 43 52 23 28 - - -
01/07:30am - - - - - SW 41 54 22 29 - - -
01/07:00am - - - - - SW 43 54 23 29 - - -
01/06:30am - - - - - SW 41 52 22 28 - - -
01/06:00am - - - - - SW 37 52 20 28 - - -
01/05:30am - - - - - SSW 46 57 25 31 - - -
01/05:00am - - - - - SW 39 57 21 31 - - -
01/04:56am - - - - - SW 39 57 21 31 - - -
01/04:30am - - - - - SSW 46 61 25 33 - - -
01/04:00am - - - - - SW 43 57 23 31 - - -
01/03:30am - - - - - SW 46 63 25 34 - - -
01/03:00am - - - - - SW 44 61 24 33 - - -
01/02:38am - - - - - SW 39 57 21 31 - - -
01/02:30am - - - - - SW 37 52 20 28 - - -
01/02:00am - - - - - SW 39 52 21 28 - - -
01/01:30am - - - - - SW 37 50 20 27 - - -
01/01:00am - - - - - SW 33 44 18 24 - - -
01/12:30am - - - - - SW 32 41 17 22 - - -
01/12:00am - - - - - SW 30 37 16 20 - - -
 
Date/Time
CDT
Temp
°C
App
Temp
°C
Dew
Point
Rel
Hum
%
Delta-T
°C
Wind Press
QNH
hPa
Press
MSL
hPa
Rain
since 9 am
mm
Dir
 
Spd
km/h
Gust
km/h
Spd
kts
Gust
kts
31/11:30pm - - - - - SW 24 30 13 16 - - -
31/11:00pm - - - - - SSW 20 26 11 14 - - -
31/10:30pm - - - - - S 22 28 12 15 - - -
31/10:00pm - - - - - S 26 35 14 19 - - -
31/09:30pm - - - - - S 28 35 15 19 - - -
31/09:00pm - - - - - SSW 41 52 22 28 - - -
31/08:42pm - - - - - SSW 43 61 23 33 - - -
31/08:30pm - - - - - SSW 44 54 24 29 - - -
31/08:00pm - - - - - SSW 48 61 26 33 - - -
31/07:30pm - - - - - SSW 50 61 27 33 - - -
31/07:16pm - - - - - SSW 48 67 26 36 - - -
31/07:00pm - - - - - SSW 50 65 27 35 - - -
31/06:30pm - - - - - SSW 52 67 28 36 - - -
31/06:00pm - - - - - SSW 41 54 22 29 - - -
31/05:30pm - - - - - S 39 48 21 26 - - -
31/05:00pm - - - - - SSW 35 50 19 27 - - -
31/04:30pm - - - - - SSW 32 37 17 20 - - -
31/04:00pm - - - - - S 33 41 18 22 - - -
31/03:30pm - - - - - SSW 28 37 15 20 - - -
31/03:00pm - - - - - SW 32 41 17 22 - - -
31/02:58pm - - - - - SW 32 41 17 22 - - -
31/02:30pm - - - - - S 13 19 7 10 - - -
31/02:00pm - - - - - N 9 11 5 6 - - -
31/01:30pm - - - - - N 13 15 7 8 - - -
31/01:00pm - - - - - N 15 20 8 11 - - -
31/12:30pm - - - - - N 19 28 10 15 - - -
31/12:00pm - - - - - NNE 26 30 14 16 - - -
31/11:30am - - - - - N 30 33 16 18 - - -
31/11:00am - - - - - N 24 30 13 16 - - -
31/10:30am - - - - - N 26 32 14 17 - - -
31/10:00am - - - - - N 32 37 17 20 - - -
31/09:30am - - - - - NNE 32 37 17 20 - - -
31/09:00am - - - - - N 24 28 13 15 - - -
31/08:30am - - - - - NNE 13 17 7 9 - - -
31/08:00am - - - - - NNE 9 9 5 5 - - -
31/07:30am - - - - - NE 13 13 7 7 - - -
31/07:00am - - - - - ENE 13 17 7 9 - - -
31/06:30am - - - - - NE 19 24 10 13 - - -
31/06:00am - - - - - ENE 20 24 11 13 - - -
31/05:30am - - - - - ENE 17 19 9 10 - - -
31/05:00am - - - - - ENE 13 17 7 9 - - -
31/04:30am - - - - - ENE 20 24 11 13 - - -
31/04:00am - - - - - E 20 24 11 13 - - -
31/03:30am - - - - - E 20 26 11 14 - - -
31/03:00am - - - - - E 19 22 10 12 - - -
31/02:30am - - - - - E 19 22 10 12 - - -
31/02:00am - - - - - E 19 22 10 12 - - -
31/01:30am - - - - - E 17 19 9 10 - - -
31/01:00am - - - - - ESE 17 19 9 10 - - -
31/12:30am - - - - - E 19 24 10 13 - - -
31/12:00am - - - - - E 19 26 10 14 - - -
 
Date/Time
CDT
Temp
°C
App
Temp
°C
Dew
Point
Rel
Hum
%
Delta-T
°C
Wind Press
QNH
hPa
Press
MSL
hPa
Rain
since 9 am
mm
Dir
 
Spd
km/h
Gust
km/h
Spd
kts
Gust
kts
30/11:30pm - - - - - E 15 19 8 10 - - -
30/11:00pm - - - - - E 17 19 9 10 - - -
30/10:30pm - - - - - ESE 15 22 8 12 - - -
30/10:00pm - - - - - ESE 15 20 8 11 - - -
30/09:30pm - - - - - ESE 17 20 9 11 - - -
30/09:00pm - - - - - ESE 17 20 9 11 - - -
30/08:30pm - - - - - SE 13 17 7 9 - - -
30/08:00pm - - - - - SSE 13 15 7 8 - - -
30/07:30pm - - - - - S 11 15 6 8 - - -
30/07:00pm - - - - - S 13 15 7 8 - - -
30/06:30pm - - - - - S 15 20 8 11 - - -
30/06:00pm - - - - - SSW 20 24 11 13 - - -
30/05:30pm - - - - - S 24 28 13 15 - - -
30/05:00pm - - - - - SSW 24 30 13 16 - - -
30/04:30pm - - - - - SSW 26 32 14 17 - - -
30/04:00pm - - - - - SW 20 26 11 14 - - -
30/03:30pm - - - - - SW 20 26 11 14 - - -
30/03:00pm - - - - - WSW 17 22 9 12 - - -
30/02:30pm - - - - - SW 13 17 7 9 - - -
30/02:00pm - - - - - W 17 19 9 10 - - -
30/01:30pm - - - - - W 17 22 9 12 - - -
30/01:00pm - - - - - W 17 20 9 11 - - -
30/12:30pm - - - - - W 19 22 10 12 - - -
30/12:00pm - - - - - W 17 20 9 11 - - -
30/11:30am - - - - - W 15 17 8 9 - - -
30/11:00am - - - - - WNW 7 11 4 6 - - -
30/10:30am - - - - - SW 11 15 6 8 - - -
30/10:00am - - - - - SW 13 15 7 8 - - -
30/09:30am - - - - - S 11 15 6 8 - - -
30/09:00am - - - - - SE 13 15 7 8 - - -
30/08:30am - - - - - SSE 15 19 8 10 - - -
30/08:00am - - - - - SE 11 15 6 8 - - -
30/07:30am - - - - - E 7 9 4 5 - - -
30/07:00am - - - - - ENE 9 9 5 5 - - -
30/06:30am - - - - - SE 13 17 7 9 - - -
30/06:00am - - - - - S 20 26 11 14 - - -
30/05:30am - - - - - S 20 28 11 15 - - -
30/05:00am - - - - - SE 11 13 6 7 - - -
30/04:30am - - - - - SSE 11 13 6 7 - - -
30/04:00am - - - - - E 9 11 5 6 - - -
30/03:30am - - - - - S 13 17 7 9 - - -
30/03:00am - - - - - SSE 15 19 8 10 - - -
30/02:30am - - - - - SSE 15 19 8 10 - - -
30/02:00am - - - - - S 17 22 9 12 - - -
30/01:30am - - - - - S 20 26 11 14 - - -
30/01:00am - - - - - S 17 22 9 12 - - -
30/12:30am - - - - - S 17 20 9 11 - - -
30/12:00am - - - - - SSE 17 22 9 12 - - -
 
Date/Time
CDT
Temp
°C
App
Temp
°C
Dew
Point
Rel
Hum
%
Delta-T
°C
Wind Press
QNH
hPa
Press
MSL
hPa
Rain
since 9 am
mm
Dir
 
Spd
km/h
Gust
km/h
Spd
kts
Gust
kts
29/11:30pm - - - - - S 19 26 10 14 - - -
29/11:00pm - - - - - SSE 20 24 11 13 - - -
29/10:30pm - - - - - SSE 19 26 10 14 - - -
29/10:00pm - - - - - SE 17 22 9 12 - - -
29/09:30pm - - - - - SE 15 19 8 10 - - -
29/09:00pm - - - - - S 24 30 13 16 - - -
29/08:30pm - - - - - S 28 33 15 18 - - -

Other Formats:

Comma delimited format used in spreadsheet applications
http://www.bom.gov.au/fwo/IDS60801/IDS60801.94666.axf

JavaScript Object Notation format (JSON) in row-major order
http://www.bom.gov.au/fwo/IDS60801/IDS60801.94666.json